West Mansfield, Ohio
Current Conditions -  °F | °C
As of 1:50 PM on Sunday 23 Nov 2014 (Local Time) from KEDJ Reporting Station
Few Clouds Few Clouds  
Wind Chill: 57°   Ceiling: Unl
Heat Index: 57°   Visibility: 10mi
Dew Point: 43°   Wind: 18mph
Humidity: 59%   Direction: 140°SE
Pressure: 29.76"   Gusts: 22mph
Location:  40.4°N, 83.55°W
Report Text: KEDJ 231850Z AUTO 14016G19KT 10SM FEW075 14/06 A2976 RMK AO1
Loading
Personal Weather Stations






























Interactive Weather Map New forecast layout! Learn more

10-Day Weather Forecast

Advertisements
Track Severe Weather on mobile